sensor_id;sensor_type;location;lat;lon;timestamp;P1;durP1;ratioP1;P2;durP2;ratioP2
22924;SDS011;11628;51.072;3.712;2023-01-04T00:01:14;7.95;;;5.43;;
22924;SDS011;11628;51.072;3.712;2023-01-04T00:03:42;8.77;;;5.35;;
22924;SDS011;11628;51.072;3.712;2023-01-04T00:06:09;5.22;;;4.43;;
22924;SDS011;11628;51.072;3.712;2023-01-04T00:08:36;10.10;;;5.32;;
22924;SDS011;11628;51.072;3.712;2023-01-04T00:11:03;9.50;;;5.95;;
22924;SDS011;11628;51.072;3.712;2023-01-04T00:13:30;8.60;;;4.30;;
22924;SDS011;11628;51.072;3.712;2023-01-04T00:15:58;6.22;;;4.50;;
22924;SDS011;11628;51.072;3.712;2023-01-04T00:18:28;7.55;;;4.40;;
22924;SDS011;11628;51.072;3.712;2023-01-04T00:20:54;10.65;;;5.15;;
22924;SDS011;11628;51.072;3.712;2023-01-04T00:23:31;10.27;;;5.60;;
22924;SDS011;11628;51.072;3.712;2023-01-04T00:25:57;7.13;;;4.00;;
22924;SDS011;11628;51.072;3.712;2023-01-04T00:28:23;8.50;;;5.32;;
22924;SDS011;11628;51.072;3.712;2023-01-04T00:30:49;6.97;;;4.20;;
22924;SDS011;11628;51.072;3.712;2023-01-04T00:33:14;7.30;;;4.22;;
22924;SDS011;11628;51.072;3.712;2023-01-04T00:35:40;10.02;;;4.85;;
22924;SDS011;11628;51.072;3.712;2023-01-04T00:38:07;6.35;;;4.90;;
22924;SDS011;11628;51.072;3.712;2023-01-04T00:40:33;7.38;;;4.63;;
22924;SDS011;11628;51.072;3.712;2023-01-04T00:42:58;7.80;;;4.70;;
22924;SDS011;11628;51.072;3.712;2023-01-04T00:45:24;6.35;;;4.57;;
22924;SDS011;11628;51.072;3.712;2023-01-04T00:47:50;8.13;;;5.55;;
22924;SDS011;11628;51.072;3.712;2023-01-04T00:50:15;7.90;;;4.40;;
22924;SDS011;11628;51.072;3.712;2023-01-04T00:52:41;5.82;;;4.70;;
22924;SDS011;11628;51.072;3.712;2023-01-04T00:55:07;8.13;;;4.82;;
22924;SDS011;11628;51.072;3.712;2023-01-04T00:57:33;6.22;;;3.58;;
22924;SDS011;11628;51.072;3.712;2023-01-04T00:59:59;7.40;;;4.57;;
22924;SDS011;11628;51.072;3.712;2023-01-04T01:02:24;7.78;;;4.25;;
22924;SDS011;11628;51.072;3.712;2023-01-04T01:04:50;10.82;;;4.70;;
22924;SDS011;11628;51.072;3.712;2023-01-04T01:07:16;4.38;;;3.97;;
22924;SDS011;11628;51.072;3.712;2023-01-04T01:09:42;10.55;;;4.40;;
22924;SDS011;11628;51.072;3.712;2023-01-04T01:12:08;7.25;;;4.20;;
22924;SDS011;11628;51.072;3.712;2023-01-04T01:14:33;5.63;;;3.67;;
22924;SDS011;11628;51.072;3.712;2023-01-04T01:16:59;7.43;;;3.95;;
22924;SDS011;11628;51.072;3.712;2023-01-04T01:19:26;8.07;;;3.47;;
22924;SDS011;11628;51.072;3.712;2023-01-04T01:21:53;6.90;;;3.65;;
22924;SDS011;11628;51.072;3.712;2023-01-04T01:24:20;8.40;;;4.10;;
22924;SDS011;11628;51.072;3.712;2023-01-04T01:26:46;6.32;;;4.47;;
22924;SDS011;11628;51.072;3.712;2023-01-04T01:29:13;7.55;;;3.78;;
22924;SDS011;11628;51.072;3.712;2023-01-04T01:31:39;4.68;;;3.42;;
22924;SDS011;11628;51.072;3.712;2023-01-04T01:34:05;5.13;;;3.00;;
22924;SDS011;11628;51.072;3.712;2023-01-04T01:36:31;6.97;;;3.63;;
22924;SDS011;11628;51.072;3.712;2023-01-04T01:38:57;5.97;;;3.50;;
22924;SDS011;11628;51.072;3.712;2023-01-04T01:41:27;7.43;;;3.50;;
22924;SDS011;11628;51.072;3.712;2023-01-04T01:43:56;5.75;;;3.97;;
22924;SDS011;11628;51.072;3.712;2023-01-04T01:46:37;5.90;;;3.92;;
22924;SDS011;11628;51.072;3.712;2023-01-04T01:49:30;5.03;;;3.70;;
22924;SDS011;11628;51.072;3.712;2023-01-04T01:52:04;6.55;;;3.80;;
22924;SDS011;11628;51.072;3.712;2023-01-04T01:54:35;5.63;;;3.40;;
22924;SDS011;11628;51.072;3.712;2023-01-04T01:57:06;6.00;;;3.85;;
22924;SDS011;11628;51.072;3.712;2023-01-04T01:59:37;5.00;;;3.78;;
22924;SDS011;11628;51.072;3.712;2023-01-04T02:02:06;4.80;;;3.95;;
22924;SDS011;11628;51.072;3.712;2023-01-04T02:04:31;5.80;;;3.53;;
22924;SDS011;11628;51.072;3.712;2023-01-04T02:06:58;7.18;;;3.65;;
22924;SDS011;11628;51.072;3.712;2023-01-04T02:09:25;6.88;;;3.70;;
22924;SDS011;11628;51.072;3.712;2023-01-04T02:11:50;5.68;;;4.00;;
22924;SDS011;11628;51.072;3.712;2023-01-04T02:14:16;4.00;;;3.60;;
22924;SDS011;11628;51.072;3.712;2023-01-04T02:16:55;6.32;;;4.30;;
22924;SDS011;11628;51.072;3.712;2023-01-04T02:41:38;5.10;;;3.75;;
22924;SDS011;11628;51.072;3.712;2023-01-04T02:47:00;6.25;;;3.72;;
22924;SDS011;11628;51.072;3.712;2023-01-04T02:49:34;6.32;;;4.22;;
22924;SDS011;11628;51.072;3.712;2023-01-04T02:52:18;7.68;;;4.40;;
22924;SDS011;11628;51.072;3.712;2023-01-04T02:54:45;9.32;;;3.90;;
22924;SDS011;11628;51.072;3.712;2023-01-04T03:00:09;7.18;;;4.53;;
22924;SDS011;11628;51.072;3.712;2023-01-04T03:03:24;7.78;;;4.13;;
22924;SDS011;11628;51.072;3.712;2023-01-04T03:06:25;6.95;;;4.82;;
22924;SDS011;11628;51.072;3.712;2023-01-04T03:09:04;6.68;;;5.10;;
22924;SDS011;11628;51.072;3.712;2023-01-04T03:11:55;4.68;;;3.63;;
22924;SDS011;11628;51.072;3.712;2023-01-04T03:14:56;7.65;;;4.68;;
22924;SDS011;11628;51.072;3.712;2023-01-04T03:17:36;5.55;;;4.13;;
22924;SDS011;11628;51.072;3.712;2023-01-04T03:20:07;5.65;;;3.90;;
22924;SDS011;11628;51.072;3.712;2023-01-04T03:22:36;7.03;;;4.20;;
22924;SDS011;11628;51.072;3.712;2023-01-04T03:25:25;5.40;;;3.72;;
22924;SDS011;11628;51.072;3.712;2023-01-04T03:28:14;7.00;;;4.47;;
22924;SDS011;11628;51.072;3.712;2023-01-04T03:31:13;7.28;;;3.97;;
22924;SDS011;11628;51.072;3.712;2023-01-04T03:34:00;6.38;;;4.22;;
22924;SDS011;11628;51.072;3.712;2023-01-04T03:45:48;4.30;;;3.72;;
22924;SDS011;11628;51.072;3.712;2023-01-04T03:51:35;5.35;;;4.00;;
22924;SDS011;11628;51.072;3.712;2023-01-04T03:54:03;5.30;;;3.92;;
22924;SDS011;11628;51.072;3.712;2023-01-04T03:56:34;6.20;;;4.03;;
22924;SDS011;11628;51.072;3.712;2023-01-04T03:59:02;4.97;;;3.53;;
22924;SDS011;11628;51.072;3.712;2023-01-04T04:01:29;5.25;;;3.88;;
22924;SDS011;11628;51.072;3.712;2023-01-04T04:03:55;6.22;;;3.80;;
22924;SDS011;11628;51.072;3.712;2023-01-04T04:06:39;5.05;;;4.03;;
22924;SDS011;11628;51.072;3.712;2023-01-04T04:09:24;7.07;;;3.40;;
22924;SDS011;11628;51.072;3.712;2023-01-04T04:11:50;6.57;;;3.88;;
22924;SDS011;11628;51.072;3.712;2023-01-04T04:14:15;5.90;;;3.58;;
22924;SDS011;11628;51.072;3.712;2023-01-04T04:16:41;4.38;;;3.60;;
22924;SDS011;11628;51.072;3.712;2023-01-04T04:19:07;3.50;;;3.20;;
22924;SDS011;11628;51.072;3.712;2023-01-04T04:21:32;5.70;;;3.28;;
22924;SDS011;11628;51.072;3.712;2023-01-04T04:23:58;4.88;;;3.60;;
22924;SDS011;11628;51.072;3.712;2023-01-04T04:26:24;6.45;;;3.88;;
22924;SDS011;11628;51.072;3.712;2023-01-04T04:28:50;4.93;;;3.25;;
22924;SDS011;11628;51.072;3.712;2023-01-04T04:31:16;6.15;;;3.70;;
22924;SDS011;11628;51.072;3.712;2023-01-04T04:33:41;6.00;;;3.53;;
22924;SDS011;11628;51.072;3.712;2023-01-04T04:36:07;7.72;;;3.72;;
22924;SDS011;11628;51.072;3.712;2023-01-04T04:38:33;4.85;;;3.38;;
22924;SDS011;11628;51.072;3.712;2023-01-04T04:41:04;5.93;;;3.60;;
22924;SDS011;11628;51.072;3.712;2023-01-04T04:43:49;7.10;;;3.70;;
22924;SDS011;11628;51.072;3.712;2023-01-04T04:46:15;4.53;;;3.80;;
22924;SDS011;11628;51.072;3.712;2023-01-04T04:48:41;6.43;;;3.00;;
22924;SDS011;11628;51.072;3.712;2023-01-04T04:51:06;6.45;;;3.47;;
22924;SDS011;11628;51.072;3.712;2023-01-04T04:53:32;3.00;;;2.70;;
22924;SDS011;11628;51.072;3.712;2023-01-04T04:55:58;5.22;;;3.30;;
22924;SDS011;11628;51.072;3.712;2023-01-04T04:58:25;6.43;;;3.90;;
22924;SDS011;11628;51.072;3.712;2023-01-04T05:00:50;5.20;;;3.20;;
22924;SDS011;11628;51.072;3.712;2023-01-04T05:03:16;4.40;;;3.65;;
22924;SDS011;11628;51.072;3.712;2023-01-04T05:05:42;4.43;;;3.63;;
22924;SDS011;11628;51.072;3.712;2023-01-04T05:08:08;5.95;;;3.70;;
22924;SDS011;11628;51.072;3.712;2023-01-04T05:10:33;4.07;;;3.72;;
22924;SDS011;11628;51.072;3.712;2023-01-04T05:12:59;5.85;;;2.92;;
22924;SDS011;11628;51.072;3.712;2023-01-04T05:15:44;4.03;;;3.50;;
22924;SDS011;11628;51.072;3.712;2023-01-04T05:18:12;4.85;;;3.30;;
22924;SDS011;11628;51.072;3.712;2023-01-04T05:20:39;5.60;;;3.28;;
22924;SDS011;11628;51.072;3.712;2023-01-04T05:23:06;4.47;;;3.17;;
22924;SDS011;11628;51.072;3.712;2023-01-04T05:25:33;5.35;;;3.80;;
22924;SDS011;11628;51.072;3.712;2023-01-04T05:27:59;4.70;;;3.70;;
22924;SDS011;11628;51.072;3.712;2023-01-04T05:30:24;3.63;;;2.67;;
22924;SDS011;11628;51.072;3.712;2023-01-04T05:33:09;3.60;;;3.30;;
22924;SDS011;11628;51.072;3.712;2023-01-04T05:35:35;3.30;;;2.63;;
22924;SDS011;11628;51.072;3.712;2023-01-04T05:38:01;2.90;;;2.70;;
22924;SDS011;11628;51.072;3.712;2023-01-04T05:40:27;2.95;;;2.25;;
22924;SDS011;11628;51.072;3.712;2023-01-04T05:42:53;4.25;;;2.92;;
22924;SDS011;11628;51.072;3.712;2023-01-04T05:45:19;2.70;;;2.50;;
22924;SDS011;11628;51.072;3.712;2023-01-04T05:47:47;2.70;;;2.50;;
22924;SDS011;11628;51.072;3.712;2023-01-04T05:50:15;3.10;;;2.80;;
22924;SDS011;11628;51.072;3.712;2023-01-04T05:52:41;3.80;;;2.80;;
22924;SDS011;11628;51.072;3.712;2023-01-04T05:55:06;4.90;;;3.67;;
22924;SDS011;11628;51.072;3.712;2023-01-04T05:57:32;3.25;;;2.92;;
22924;SDS011;11628;51.072;3.712;2023-01-04T05:59:58;3.15;;;2.72;;
22924;SDS011;11628;51.072;3.712;2023-01-04T06:02:26;4.82;;;3.83;;
22924;SDS011;11628;51.072;3.712;2023-01-04T06:04:53;3.58;;;2.95;;
22924;SDS011;11628;51.072;3.712;2023-01-04T06:07:19;3.40;;;3.10;;
22924;SDS011;11628;51.072;3.712;2023-01-04T06:09:47;4.63;;;3.60;;
22924;SDS011;11628;51.072;3.712;2023-01-04T06:12:12;3.28;;;2.97;;
22924;SDS011;11628;51.072;3.712;2023-01-04T06:14:38;4.38;;;2.88;;
22924;SDS011;11628;51.072;3.712;2023-01-04T06:17:04;3.05;;;2.70;;
22924;SDS011;11628;51.072;3.712;2023-01-04T06:19:30;2.80;;;2.50;;
22924;SDS011;11628;51.072;3.712;2023-01-04T06:21:56;2.60;;;2.38;;
22924;SDS011;11628;51.072;3.712;2023-01-04T06:24:22;2.97;;;2.28;;
22924;SDS011;11628;51.072;3.712;2023-01-04T06:26:49;5.00;;;2.95;;
22924;SDS011;11628;51.072;3.712;2023-01-04T06:29:15;3.03;;;2.50;;
22924;SDS011;11628;51.072;3.712;2023-01-04T06:31:41;5.70;;;2.70;;
22924;SDS011;11628;51.072;3.712;2023-01-04T06:34:09;2.55;;;2.30;;
22924;SDS011;11628;51.072;3.712;2023-01-04T06:36:35;5.90;;;2.40;;
22924;SDS011;11628;51.072;3.712;2023-01-04T06:39:01;4.63;;;2.92;;
22924;SDS011;11628;51.072;3.712;2023-01-04T06:41:27;4.05;;;2.95;;
22924;SDS011;11628;51.072;3.712;2023-01-04T06:43:53;3.85;;;2.90;;
22924;SDS011;11628;51.072;3.712;2023-01-04T06:46:18;6.75;;;3.20;;
22924;SDS011;11628;51.072;3.712;2023-01-04T06:48:44;5.78;;;3.05;;
22924;SDS011;11628;51.072;3.712;2023-01-04T06:51:10;5.72;;;2.90;;
22924;SDS011;11628;51.072;3.712;2023-01-04T06:53:36;5.28;;;2.83;;
22924;SDS011;11628;51.072;3.712;2023-01-04T06:56:02;4.15;;;2.75;;
22924;SDS011;11628;51.072;3.712;2023-01-04T06:58:27;4.05;;;3.00;;
22924;SDS011;11628;51.072;3.712;2023-01-04T07:00:53;3.97;;;3.03;;
22924;SDS011;11628;51.072;3.712;2023-01-04T07:03:19;6.65;;;3.42;;
22924;SDS011;11628;51.072;3.712;2023-01-04T07:05:45;4.47;;;3.80;;
22924;SDS011;11628;51.072;3.712;2023-01-04T07:08:12;5.00;;;3.53;;
22924;SDS011;11628;51.072;3.712;2023-01-04T07:10:38;6.05;;;3.70;;
22924;SDS011;11628;51.072;3.712;2023-01-04T07:13:05;4.35;;;3.60;;
22924;SDS011;11628;51.072;3.712;2023-01-04T07:15:31;4.60;;;3.55;;
22924;SDS011;11628;51.072;3.712;2023-01-04T07:17:57;6.63;;;4.13;;
22924;SDS011;11628;51.072;3.712;2023-01-04T07:20:23;9.45;;;4.05;;
22924;SDS011;11628;51.072;3.712;2023-01-04T07:22:48;4.15;;;3.75;;
22924;SDS011;11628;51.072;3.712;2023-01-04T07:25:14;5.07;;;4.35;;
22924;SDS011;11628;51.072;3.712;2023-01-04T07:27:40;6.40;;;4.28;;
22924;SDS011;11628;51.072;3.712;2023-01-04T07:30:06;5.63;;;4.30;;
22924;SDS011;11628;51.072;3.712;2023-01-04T07:32:32;8.68;;;3.80;;
22924;SDS011;11628;51.072;3.712;2023-01-04T07:34:58;6.10;;;3.35;;
22924;SDS011;11628;51.072;3.712;2023-01-04T07:37:24;5.45;;;3.22;;
22924;SDS011;11628;51.072;3.712;2023-01-04T07:39:49;8.95;;;3.55;;
22924;SDS011;11628;51.072;3.712;2023-01-04T07:42:15;7.85;;;3.75;;
22924;SDS011;11628;51.072;3.712;2023-01-04T07:44:43;9.48;;;3.58;;
22924;SDS011;11628;51.072;3.712;2023-01-04T07:47:09;8.18;;;3.03;;
22924;SDS011;11628;51.072;3.712;2023-01-04T07:49:35;8.95;;;3.53;;
22924;SDS011;11628;51.072;3.712;2023-01-04T07:52:00;8.20;;;3.85;;
22924;SDS011;11628;51.072;3.712;2023-01-04T07:54:26;8.98;;;4.90;;
22924;SDS011;11628;51.072;3.712;2023-01-04T07:56:52;5.65;;;2.40;;
22924;SDS011;11628;51.072;3.712;2023-01-04T07:59:18;6.88;;;2.50;;
22924;SDS011;11628;51.072;3.712;2023-01-04T08:01:45;4.78;;;3.15;;
22924;SDS011;11628;51.072;3.712;2023-01-04T08:04:13;8.50;;;4.10;;
22924;SDS011;11628;51.072;3.712;2023-01-04T08:06:39;7.18;;;3.30;;
22924;SDS011;11628;51.072;3.712;2023-01-04T08:09:07;5.72;;;3.42;;
22924;SDS011;11628;51.072;3.712;2023-01-04T08:11:34;7.65;;;3.45;;
22924;SDS011;11628;51.072;3.712;2023-01-04T08:14:00;8.50;;;4.47;;
22924;SDS011;11628;51.072;3.712;2023-01-04T08:16:29;9.90;;;4.20;;
22924;SDS011;11628;51.072;3.712;2023-01-04T08:18:59;6.88;;;4.38;;
22924;SDS011;11628;51.072;3.712;2023-01-04T08:21:30;7.93;;;5.10;;
22924;SDS011;11628;51.072;3.712;2023-01-04T08:23:58;9.20;;;4.50;;
22924;SDS011;11628;51.072;3.712;2023-01-04T08:26:24;13.15;;;5.13;;
22924;SDS011;11628;51.072;3.712;2023-01-04T08:28:51;9.80;;;5.32;;
22924;SDS011;11628;51.072;3.712;2023-01-04T08:31:18;7.57;;;4.80;;
22924;SDS011;11628;51.072;3.712;2023-01-04T08:33:46;13.23;;;4.80;;
22924;SDS011;11628;51.072;3.712;2023-01-04T08:38:49;12.73;;;5.00;;
22924;SDS011;11628;51.072;3.712;2023-01-04T08:41:16;7.35;;;3.67;;
22924;SDS011;11628;51.072;3.712;2023-01-04T08:43:42;7.53;;;4.00;;
22924;SDS011;11628;51.072;3.712;2023-01-04T08:46:09;10.35;;;3.92;;
22924;SDS011;11628;51.072;3.712;2023-01-04T08:48:34;7.30;;;4.03;;
22924;SDS011;11628;51.072;3.712;2023-01-04T08:51:01;8.90;;;4.78;;
22924;SDS011;11628;51.072;3.712;2023-01-04T08:53:29;10.18;;;3.95;;
22924;SDS011;11628;51.072;3.712;2023-01-04T08:55:55;6.78;;;4.00;;
22924;SDS011;11628;51.072;3.712;2023-01-04T08:58:25;5.93;;;3.60;;
22924;SDS011;11628;51.072;3.712;2023-01-04T09:01:01;8.45;;;3.25;;
22924;SDS011;11628;51.072;3.712;2023-01-04T09:03:31;9.48;;;3.53;;
22924;SDS011;11628;51.072;3.712;2023-01-04T09:06:04;7.38;;;4.28;;
22924;SDS011;11628;51.072;3.712;2023-01-04T09:08:32;8.60;;;4.60;;
22924;SDS011;11628;51.072;3.712;2023-01-04T09:11:02;7.60;;;3.63;;
22924;SDS011;11628;51.072;3.712;2023-01-04T09:13:29;10.18;;;4.85;;
22924;SDS011;11628;51.072;3.712;2023-01-04T09:15:58;11.13;;;4.97;;
22924;SDS011;11628;51.072;3.712;2023-01-04T09:18:25;11.38;;;5.78;;
22924;SDS011;11628;51.072;3.712;2023-01-04T09:20:50;10.18;;;5.25;;
22924;SDS011;11628;51.072;3.712;2023-01-04T09:23:16;8.75;;;5.68;;
22924;SDS011;11628;51.072;3.712;2023-01-04T09:25:42;8.75;;;6.03;;
22924;SDS011;11628;51.072;3.712;2023-01-04T09:28:07;8.35;;;5.07;;
22924;SDS011;11628;51.072;3.712;2023-01-04T09:30:33;10.23;;;6.20;;
22924;SDS011;11628;51.072;3.712;2023-01-04T09:32:59;7.15;;;4.82;;
22924;SDS011;11628;51.072;3.712;2023-01-04T09:35:25;7.55;;;4.90;;
22924;SDS011;11628;51.072;3.712;2023-01-04T09:37:50;8.73;;;4.65;;
22924;SDS011;11628;51.072;3.712;2023-01-04T09:40:20;6.03;;;4.32;;
22924;SDS011;11628;51.072;3.712;2023-01-04T09:42:50;5.45;;;4.00;;
22924;SDS011;11628;51.072;3.712;2023-01-04T09:45:18;6.07;;;4.20;;
22924;SDS011;11628;51.072;3.712;2023-01-04T09:50:52;8.50;;;5.22;;
22924;SDS011;11628;51.072;3.712;2023-01-04T09:56:25;7.68;;;6.32;;
22924;SDS011;11628;51.072;3.712;2023-01-04T09:59:01;6.20;;;3.95;;
22924;SDS011;11628;51.072;3.712;2023-01-04T10:01:45;6.75;;;3.78;;
22924;SDS011;11628;51.072;3.712;2023-01-04T10:06:49;7.25;;;3.83;;
22924;SDS011;11628;51.072;3.712;2023-01-04T10:09:17;4.03;;;3.47;;
22924;SDS011;11628;51.072;3.712;2023-01-04T10:11:59;5.63;;;2.97;;
22924;SDS011;11628;51.072;3.712;2023-01-04T10:14:46;4.97;;;3.92;;
22924;SDS011;11628;51.072;3.712;2023-01-04T10:20:37;6.38;;;3.60;;
22924;SDS011;11628;51.072;3.712;2023-01-04T10:26:13;5.38;;;3.53;;
22924;SDS011;11628;51.072;3.712;2023-01-04T10:31:50;5.03;;;3.20;;
22924;SDS011;11628;51.072;3.712;2023-01-04T10:34:23;2.63;;;2.42;;
22924;SDS011;11628;51.072;3.712;2023-01-04T10:37:05;3.67;;;2.45;;
22924;SDS011;11628;51.072;3.712;2023-01-04T10:39:51;4.22;;;2.70;;
22924;SDS011;11628;51.072;3.712;2023-01-04T10:45:14;5.25;;;3.28;;
22924;SDS011;11628;51.072;3.712;2023-01-04T10:52:55;5.80;;;3.50;;
22924;SDS011;11628;51.072;3.712;2023-01-04T10:55:28;3.58;;;3.22;;
22924;SDS011;11628;51.072;3.712;2023-01-04T10:58:09;3.25;;;2.80;;
22924;SDS011;11628;51.072;3.712;2023-01-04T11:00:43;3.80;;;2.85;;
22924;SDS011;11628;51.072;3.712;2023-01-04T11:03:41;3.17;;;1.98;;
22924;SDS011;11628;51.072;3.712;2023-01-04T11:06:43;2.83;;;2.13;;
22924;SDS011;11628;51.072;3.712;2023-01-04T11:09:37;3.20;;;2.13;;
22924;SDS011;11628;51.072;3.712;2023-01-04T11:12:08;2.92;;;2.25;;
22924;SDS011;11628;51.072;3.712;2023-01-04T11:14:37;3.83;;;2.03;;
22924;SDS011;11628;51.072;3.712;2023-01-04T11:17:03;3.83;;;2.20;;
22924;SDS011;11628;51.072;3.712;2023-01-04T11:19:31;2.10;;;1.90;;
22924;SDS011;11628;51.072;3.712;2023-01-04T11:22:00;2.92;;;1.70;;
22924;SDS011;11628;51.072;3.712;2023-01-04T11:24:36;4.57;;;2.30;;
22924;SDS011;11628;51.072;3.712;2023-01-04T11:27:06;2.22;;;1.98;;
22924;SDS011;11628;51.072;3.712;2023-01-04T11:29:41;2.75;;;2.53;;
22924;SDS011;11628;51.072;3.712;2023-01-04T11:32:16;2.70;;;1.90;;
22924;SDS011;11628;51.072;3.712;2023-01-04T11:34:59;3.40;;;2.30;;
22924;SDS011;11628;51.072;3.712;2023-01-04T11:37:26;3.05;;;2.35;;
22924;SDS011;11628;51.072;3.712;2023-01-04T11:40:02;3.22;;;2.28;;
22924;SDS011;11628;51.072;3.712;2023-01-04T11:42:34;4.77;;;2.77;;
22924;SDS011;11628;51.072;3.712;2023-01-04T11:45:00;4.07;;;2.72;;
22924;SDS011;11628;51.072;3.712;2023-01-04T11:47:26;5.15;;;4.00;;
22924;SDS011;11628;51.072;3.712;2023-01-04T11:49:55;3.67;;;2.78;;
22924;SDS011;11628;51.072;3.712;2023-01-04T11:54:54;4.30;;;3.00;;
22924;SDS011;11628;51.072;3.712;2023-01-04T11:57:20;3.78;;;2.88;;
22924;SDS011;11628;51.072;3.712;2023-01-04T12:02:32;7.65;;;4.05;;
22924;SDS011;11628;51.072;3.712;2023-01-04T12:04:58;3.60;;;3.30;;
22924;SDS011;11628;51.072;3.712;2023-01-04T12:07:30;3.53;;;3.08;;
22924;SDS011;11628;51.072;3.712;2023-01-04T12:09:58;3.05;;;2.80;;
22924;SDS011;11628;51.072;3.712;2023-01-04T12:12:32;3.50;;;3.20;;
22924;SDS011;11628;51.072;3.712;2023-01-04T12:15:09;3.45;;;3.15;;
22924;SDS011;11628;51.072;3.712;2023-01-04T12:17:51;3.33;;;2.50;;
22924;SDS011;11628;51.072;3.712;2023-01-04T12:20:23;4.22;;;2.80;;
22924;SDS011;11628;51.072;3.712;2023-01-04T12:22:51;3.60;;;2.92;;
22924;SDS011;11628;51.072;3.712;2023-01-04T12:25:27;3.80;;;3.38;;
22924;SDS011;11628;51.072;3.712;2023-01-04T12:27:56;4.93;;;3.17;;
22924;SDS011;11628;51.072;3.712;2023-01-04T12:30:54;3.90;;;2.50;;
22924;SDS011;11628;51.072;3.712;2023-01-04T12:36:12;3.80;;;2.20;;
22924;SDS011;11628;51.072;3.712;2023-01-04T12:38:59;2.88;;;1.85;;
22924;SDS011;11628;51.072;3.712;2023-01-04T12:43:58;4.80;;;2.30;;
22924;SDS011;11628;51.072;3.712;2023-01-04T12:54:48;6.88;;;2.45;;
22924;SDS011;11628;51.072;3.712;2023-01-04T12:59:53;7.43;;;2.65;;
22924;SDS011;11628;51.072;3.712;2023-01-04T13:02:23;7.15;;;2.90;;
22924;SDS011;11628;51.072;3.712;2023-01-04T13:04:54;8.73;;;2.38;;
22924;SDS011;11628;51.072;3.712;2023-01-04T13:07:26;4.45;;;2.08;;
22924;SDS011;11628;51.072;3.712;2023-01-04T13:10:06;4.75;;;2.20;;
22924;SDS011;11628;51.072;3.712;2023-01-04T13:12:50;6.15;;;1.98;;
22924;SDS011;11628;51.072;3.712;2023-01-04T13:18:33;11.48;;;6.90;;
22924;SDS011;11628;51.072;3.712;2023-01-04T13:21:15;10.00;;;3.60;;
22924;SDS011;11628;51.072;3.712;2023-01-04T13:23:51;12.68;;;3.20;;
22924;SDS011;11628;51.072;3.712;2023-01-04T13:26:39;11.57;;;2.92;;
22924;SDS011;11628;51.072;3.712;2023-01-04T13:31:49;10.38;;;3.00;;
22924;SDS011;11628;51.072;3.712;2023-01-04T13:34:24;11.50;;;2.92;;
22924;SDS011;11628;51.072;3.712;2023-01-04T13:42:28;11.20;;;3.25;;
22924;SDS011;11628;51.072;3.712;2023-01-04T13:47:54;18.95;;;3.20;;
22924;SDS011;11628;51.072;3.712;2023-01-04T13:50:30;12.23;;;3.42;;
22924;SDS011;11628;51.072;3.712;2023-01-04T13:53:21;16.13;;;4.28;;
22924;SDS011;11628;51.072;3.712;2023-01-04T13:55:52;11.88;;;2.78;;
22924;SDS011;11628;51.072;3.712;2023-01-04T13:58:20;13.65;;;3.45;;
22924;SDS011;11628;51.072;3.712;2023-01-04T14:05:49;14.50;;;3.13;;
22924;SDS011;11628;51.072;3.712;2023-01-04T14:08:59;15.70;;;3.75;;
22924;SDS011;11628;51.072;3.712;2023-01-04T14:11:22;13.23;;;2.83;;
22924;SDS011;11628;51.072;3.712;2023-01-04T14:14:23;9.68;;;2.50;;
22924;SDS011;11628;51.072;3.712;2023-01-04T14:17:21;12.23;;;2.70;;
22924;SDS011;11628;51.072;3.712;2023-01-04T14:22:36;12.38;;;2.80;;
22924;SDS011;11628;51.072;3.712;2023-01-04T14:30:53;14.80;;;3.92;;
22924;SDS011;11628;51.072;3.712;2023-01-04T14:36:42;8.52;;;2.90;;
22924;SDS011;11628;51.072;3.712;2023-01-04T14:41:32;9.13;;;2.45;;
22924;SDS011;11628;51.072;3.712;2023-01-04T14:46:25;9.15;;;2.53;;
22924;SDS011;11628;51.072;3.712;2023-01-04T14:48:55;6.22;;;2.33;;
22924;SDS011;11628;51.072;3.712;2023-01-04T14:51:24;8.18;;;3.00;;
22924;SDS011;11628;51.072;3.712;2023-01-04T14:54:05;10.73;;;3.85;;
22924;SDS011;11628;51.072;3.712;2023-01-04T14:56:31;12.32;;;4.45;;
22924;SDS011;11628;51.072;3.712;2023-01-04T14:58:57;17.67;;;9.15;;
22924;SDS011;11628;51.072;3.712;2023-01-04T15:01:23;17.65;;;6.20;;
22924;SDS011;11628;51.072;3.712;2023-01-04T15:03:49;9.05;;;3.30;;
22924;SDS011;11628;51.072;3.712;2023-01-04T15:06:15;16.48;;;4.95;;
22924;SDS011;11628;51.072;3.712;2023-01-04T15:08:41;17.38;;;5.38;;
22924;SDS011;11628;51.072;3.712;2023-01-04T15:11:06;19.35;;;4.18;;
22924;SDS011;11628;51.072;3.712;2023-01-04T15:13:33;16.75;;;3.22;;
22924;SDS011;11628;51.072;3.712;2023-01-04T15:16:02;22.83;;;3.58;;
22924;SDS011;11628;51.072;3.712;2023-01-04T15:18:28;23.08;;;3.10;;
22924;SDS011;11628;51.072;3.712;2023-01-04T15:20:54;22.05;;;3.35;;
22924;SDS011;11628;51.072;3.712;2023-01-04T15:23:20;19.13;;;3.83;;
22924;SDS011;11628;51.072;3.712;2023-01-04T15:25:45;25.10;;;5.38;;
22924;SDS011;11628;51.072;3.712;2023-01-04T15:28:12;27.08;;;4.22;;
22924;SDS011;11628;51.072;3.712;2023-01-04T15:30:42;21.52;;;4.30;;
22924;SDS011;11628;51.072;3.712;2023-01-04T15:33:08;23.35;;;4.57;;
22924;SDS011;11628;51.072;3.712;2023-01-04T15:35:34;25.13;;;4.40;;
22924;SDS011;11628;51.072;3.712;2023-01-04T15:38:00;25.60;;;4.50;;
22924;SDS011;11628;51.072;3.712;2023-01-04T15:40:25;24.58;;;3.88;;
22924;SDS011;11628;51.072;3.712;2023-01-04T15:42:51;26.73;;;5.53;;
22924;SDS011;11628;51.072;3.712;2023-01-04T15:45:26;28.13;;;4.93;;
22924;SDS011;11628;51.072;3.712;2023-01-04T15:48:02;57.88;;;14.23;;
22924;SDS011;11628;51.072;3.712;2023-01-04T15:50:29;43.28;;;8.57;;
22924;SDS011;11628;51.072;3.712;2023-01-04T15:53:00;39.35;;;6.85;;
22924;SDS011;11628;51.072;3.712;2023-01-04T15:55:30;32.58;;;5.90;;
22924;SDS011;11628;51.072;3.712;2023-01-04T15:57:57;40.38;;;6.43;;
22924;SDS011;11628;51.072;3.712;2023-01-04T16:00:22;35.38;;;7.47;;
22924;SDS011;11628;51.072;3.712;2023-01-04T16:02:48;35.20;;;7.82;;
22924;SDS011;11628;51.072;3.712;2023-01-04T16:05:14;44.47;;;7.55;;
22924;SDS011;11628;51.072;3.712;2023-01-04T16:07:41;31.20;;;6.70;;
22924;SDS011;11628;51.072;3.712;2023-01-04T16:10:07;35.78;;;6.50;;
22924;SDS011;11628;51.072;3.712;2023-01-04T16:12:33;35.53;;;7.90;;
22924;SDS011;11628;51.072;3.712;2023-01-04T16:17:36;29.73;;;6.85;;
22924;SDS011;11628;51.072;3.712;2023-01-04T16:20:03;36.25;;;6.43;;
22924;SDS011;11628;51.072;3.712;2023-01-04T16:22:29;36.80;;;5.72;;
22924;SDS011;11628;51.072;3.712;2023-01-04T16:24:55;35.00;;;7.15;;
22924;SDS011;11628;51.072;3.712;2023-01-04T16:27:21;40.35;;;8.07;;
22924;SDS011;11628;51.072;3.712;2023-01-04T16:29:47;36.13;;;7.82;;
22924;SDS011;11628;51.072;3.712;2023-01-04T16:32:16;36.45;;;8.48;;
22924;SDS011;11628;51.072;3.712;2023-01-04T16:34:42;38.13;;;10.05;;
22924;SDS011;11628;51.072;3.712;2023-01-04T16:37:08;40.30;;;7.25;;
22924;SDS011;11628;51.072;3.712;2023-01-04T16:39:34;46.03;;;7.38;;
22924;SDS011;11628;51.072;3.712;2023-01-04T16:42:00;55.22;;;8.52;;
22924;SDS011;11628;51.072;3.712;2023-01-04T16:44:26;37.53;;;7.43;;
22924;SDS011;11628;51.072;3.712;2023-01-04T16:46:51;44.47;;;7.50;;
22924;SDS011;11628;51.072;3.712;2023-01-04T16:49:17;46.40;;;7.00;;
22924;SDS011;11628;51.072;3.712;2023-01-04T16:51:43;37.65;;;7.25;;
22924;SDS011;11628;51.072;3.712;2023-01-04T16:54:14;35.33;;;7.05;;
22924;SDS011;11628;51.072;3.712;2023-01-04T16:56:41;38.75;;;6.78;;
22924;SDS011;11628;51.072;3.712;2023-01-04T16:59:09;41.50;;;7.35;;
22924;SDS011;11628;51.072;3.712;2023-01-04T17:01:40;41.50;;;7.40;;
22924;SDS011;11628;51.072;3.712;2023-01-04T17:04:07;46.67;;;10.80;;
22924;SDS011;11628;51.072;3.712;2023-01-04T17:06:41;39.03;;;6.82;;
22924;SDS011;11628;51.072;3.712;2023-01-04T17:09:09;44.25;;;7.00;;